createdAt,value
2018-08-25T00:01:03.386Z,13.70
2018-08-25T00:03:31.519Z,13.60
2018-08-25T00:05:59.642Z,13.50
2018-08-25T00:08:27.775Z,13.50
2018-08-25T00:10:55.912Z,13.50
2018-08-25T00:13:24.034Z,13.30
2018-08-25T00:15:52.165Z,13.20
2018-08-25T00:18:20.294Z,13.00
2018-08-25T00:20:48.434Z,13.00
2018-08-25T00:23:16.570Z,13.10
2018-08-25T00:25:44.698Z,13.00
2018-08-25T00:28:12.824Z,13.00
2018-08-25T00:30:46.374Z,13.00
2018-08-25T00:33:14.498Z,13.00
2018-08-25T00:35:42.626Z,13.10
2018-08-25T00:38:10.755Z,13.30
2018-08-25T00:40:38.878Z,13.20
2018-08-25T00:43:07.085Z,13.20
2018-08-25T00:45:35.222Z,13.20
2018-08-25T00:48:03.346Z,13.30
2018-08-25T00:50:31.481Z,13.30
2018-08-25T00:52:59.605Z,13.30
2018-08-25T00:55:27.726Z,13.20
2018-08-25T00:57:55.887Z,13.20
2018-08-25T01:00:24.023Z,13.10
2018-08-25T01:02:52.158Z,13.10
2018-08-25T01:05:20.302Z,13.20
2018-08-25T01:07:48.439Z,13.20
2018-08-25T01:10:16.569Z,13.20
2018-08-25T01:12:44.693Z,13.10
2018-08-25T01:15:12.822Z,13.10
2018-08-25T01:17:40.974Z,13.10
2018-08-25T01:20:09.124Z,13.10
2018-08-25T01:22:37.254Z,13.10
2018-08-25T01:25:05.388Z,13.20
2018-08-25T01:27:33.513Z,13.10
2018-08-25T01:30:01.639Z,12.90
2018-08-25T01:32:29.761Z,12.90
2018-08-25T01:34:57.877Z,13.00
2018-08-25T01:37:25.997Z,13.00
2018-08-25T01:39:54.122Z,13.10
2018-08-25T01:42:22.249Z,13.10
2018-08-25T01:44:50.359Z,13.10
2018-08-25T01:47:18.468Z,13.10
2018-08-25T01:49:46.577Z,13.20
2018-08-25T01:52:14.762Z,13.20
2018-08-25T01:54:42.881Z,13.20
2018-08-25T01:57:11.035Z,13.20
2018-08-25T01:59:39.153Z,13.30
2018-08-25T02:02:07.286Z,13.30
2018-08-25T02:04:35.403Z,13.20
2018-08-25T02:07:03.509Z,13.20
2018-08-25T02:09:31.645Z,13.20
2018-08-25T02:11:59.769Z,13.20
2018-08-25T02:14:27.901Z,13.20
2018-08-25T02:16:56.018Z,13.10
2018-08-25T02:19:24.130Z,13.10
2018-08-25T02:21:52.253Z,13.20
2018-08-25T02:24:20.365Z,13.20
2018-08-25T02:26:48.474Z,13.20
2018-08-25T02:29:16.606Z,13.20
2018-08-25T02:31:44.729Z,13.10
2018-08-25T02:34:12.857Z,13.10
2018-08-25T02:36:41.006Z,13.10
2018-08-25T02:39:11.270Z,13.10
2018-08-25T02:41:39.385Z,13.10
2018-08-25T02:44:07.539Z,13.10
2018-08-25T02:46:35.661Z,13.10
2018-08-25T02:49:03.893Z,13.00
2018-08-25T02:51:32.013Z,13.00
2018-08-25T02:54:00.150Z,12.80
2018-08-25T02:56:28.305Z,12.80
2018-08-25T02:58:56.433Z,12.70
2018-08-25T03:01:24.573Z,12.80
2018-08-25T03:03:52.894Z,12.80
2018-08-25T03:06:21.058Z,12.80
2018-08-25T03:08:49.197Z,12.80
2018-08-25T03:11:17.346Z,12.90
2018-08-25T03:13:45.529Z,12.90
2018-08-25T03:16:13.604Z,12.90
2018-08-25T03:18:41.735Z,12.90
2018-08-25T03:21:09.879Z,13.00
2018-08-25T03:23:38.012Z,13.00
2018-08-25T03:26:06.165Z,13.00
2018-08-25T03:28:34.289Z,13.00
2018-08-25T03:31:02.438Z,13.00
2018-08-25T03:33:30.556Z,13.10
2018-08-25T03:35:58.685Z,13.10
2018-08-25T03:38:26.797Z,13.10
2018-08-25T03:40:54.910Z,13.10
2018-08-25T03:43:23.026Z,13.10
2018-08-25T03:45:51.137Z,13.10
2018-08-25T03:48:19.251Z,13.10
2018-08-25T03:50:47.373Z,13.20
2018-08-25T03:53:15.513Z,13.20
2018-08-25T03:55:43.634Z,13.20
2018-08-25T03:58:11.750Z,13.20
2018-08-25T04:00:39.867Z,13.20
2018-08-25T04:03:07.965Z,13.20
2018-08-25T04:05:36.094Z,13.20
2018-08-25T04:08:04.230Z,13.10
2018-08-25T04:10:32.365Z,13.10
2018-08-25T04:13:00.501Z,13.20
2018-08-25T04:15:28.610Z,13.20
2018-08-25T04:17:56.733Z,13.20
2018-08-25T04:20:24.841Z,13.20
2018-08-25T04:22:52.963Z,13.20
2018-08-25T04:25:21.066Z,13.20
2018-08-25T04:27:49.225Z,13.20
2018-08-25T04:30:17.335Z,13.20
2018-08-25T04:32:45.474Z,13.20
2018-08-25T04:35:13.590Z,13.20
2018-08-25T04:37:41.741Z,13.20
2018-08-25T04:40:09.892Z,13.20
2018-08-25T04:42:38.025Z,13.20
2018-08-25T04:45:06.454Z,13.20
2018-08-25T04:47:34.611Z,13.20
2018-08-25T04:50:02.758Z,13.20
2018-08-25T04:52:30.889Z,13.10
2018-08-25T04:54:59.040Z,13.00
2018-08-25T04:57:27.459Z,13.00
2018-08-25T04:59:55.586Z,13.00
2018-08-25T05:02:23.721Z,12.90
2018-08-25T05:04:52.123Z,12.90
2018-08-25T05:07:20.249Z,12.90
2018-08-25T05:09:48.399Z,12.90
2018-08-25T05:12:16.529Z,12.90
2018-08-25T05:14:44.652Z,13.10
2018-08-25T05:17:12.785Z,13.20
2018-08-25T05:19:40.917Z,13.20
2018-08-25T05:22:09.069Z,13.20
2018-08-25T05:24:37.193Z,13.30
2018-08-25T05:27:05.334Z,13.30
2018-08-25T05:29:33.455Z,13.40
2018-08-25T05:32:01.601Z,13.40
2018-08-25T05:34:29.726Z,13.30
2018-08-25T05:36:57.894Z,13.30
2018-08-25T05:39:26.009Z,13.30
2018-08-25T05:41:55.406Z,13.30
2018-08-25T05:44:23.538Z,13.40
2018-08-25T05:46:51.666Z,13.40
2018-08-25T05:49:19.822Z,13.40
2018-08-25T05:51:47.962Z,13.40
2018-08-25T05:54:16.093Z,13.40
2018-08-25T05:56:44.233Z,13.30
2018-08-25T05:59:12.363Z,13.30
2018-08-25T06:01:40.493Z,13.30
2018-08-25T06:04:08.625Z,13.30
2018-08-25T06:06:36.795Z,13.30
2018-08-25T06:09:07.943Z,13.20
2018-08-25T06:11:36.074Z,13.30
2018-08-25T06:14:04.544Z,13.30
2018-08-25T06:16:32.674Z,13.20
2018-08-25T06:19:00.807Z,13.10
2018-08-25T06:21:28.932Z,13.10
2018-08-25T06:23:57.083Z,13.10
2018-08-25T06:26:25.213Z,13.20
2018-08-25T06:28:53.361Z,13.20
2018-08-25T06:31:21.492Z,13.20
2018-08-25T06:33:49.605Z,13.20
2018-08-25T06:36:17.713Z,13.30
2018-08-25T06:38:45.830Z,13.40
2018-08-25T06:41:13.973Z,13.40
2018-08-25T06:43:42.193Z,13.40
2018-08-25T06:46:10.494Z,13.40
2018-08-25T06:48:40.819Z,13.40
2018-08-25T06:51:08.950Z,13.60
2018-08-25T06:53:37.677Z,13.60
2018-08-25T06:56:05.877Z,13.70
2018-08-25T06:58:34.006Z,13.70
2018-08-25T07:01:02.145Z,13.70
2018-08-25T07:03:30.277Z,13.80
2018-08-25T07:05:58.473Z,13.80
2018-08-25T07:08:26.535Z,13.90
2018-08-25T07:10:54.671Z,13.90
2018-08-25T07:13:22.793Z,13.90
2018-08-25T07:15:50.925Z,14.00
2018-08-25T07:18:19.059Z,14.00
2018-08-25T07:20:47.191Z,14.10
2018-08-25T07:23:15.319Z,14.10
2018-08-25T07:25:43.482Z,14.10
2018-08-25T07:28:11.573Z,14.10
2018-08-25T07:30:39.781Z,14.20
2018-08-25T07:33:07.936Z,14.20
2018-08-25T07:35:36.118Z,14.20
2018-08-25T07:38:04.229Z,14.30
2018-08-25T07:40:32.356Z,14.30
2018-08-25T07:43:00.461Z,14.30
2018-08-25T07:45:28.570Z,14.40
2018-08-25T07:47:56.668Z,14.40
2018-08-25T07:50:24.846Z,14.40
2018-08-25T07:52:52.965Z,14.40
2018-08-25T07:55:21.070Z,14.50
2018-08-25T07:57:49.211Z,14.50
2018-08-25T08:00:17.350Z,14.70
2018-08-25T08:02:45.457Z,14.80
2018-08-25T08:05:13.591Z,15.00
2018-08-25T08:07:41.790Z,15.10
2018-08-25T08:10:10.661Z,15.20
2018-08-25T08:12:38.783Z,15.30
2018-08-25T08:15:06.910Z,15.40
2018-08-25T08:17:35.080Z,15.50
2018-08-25T08:20:03.189Z,15.60
2018-08-25T08:22:31.303Z,15.70
2018-08-25T08:24:59.427Z,15.80
2018-08-25T08:27:27.541Z,15.80
2018-08-25T08:29:55.645Z,15.80
2018-08-25T08:32:23.785Z,15.80
2018-08-25T08:34:51.912Z,15.80
2018-08-25T08:37:20.063Z,15.80
2018-08-25T08:39:48.185Z,15.80
2018-08-25T08:42:16.371Z,15.70
2018-08-25T08:44:44.433Z,15.80
2018-08-25T08:47:12.563Z,15.90
2018-08-25T08:49:46.598Z,16.00
2018-08-25T08:52:08.874Z,16.10
2018-08-25T08:54:37.053Z,16.10
2018-08-25T08:57:05.181Z,16.20
2018-08-25T08:59:33.310Z,16.20
2018-08-25T09:02:01.446Z,16.20
2018-08-25T09:04:29.561Z,16.10
2018-08-25T09:06:57.702Z,16.00
2018-08-25T09:09:25.837Z,16.00
2018-08-25T09:11:54.053Z,16.00
2018-08-25T09:14:22.096Z,15.90
2018-08-25T09:16:50.390Z,15.90
2018-08-25T09:19:18.518Z,15.80
2018-08-25T09:21:46.650Z,15.70
2018-08-25T09:24:14.778Z,15.70
2018-08-25T09:26:42.905Z,15.80
2018-08-25T09:29:11.054Z,15.80
2018-08-25T09:31:39.182Z,15.90
2018-08-25T09:34:07.318Z,15.70
2018-08-25T09:36:35.618Z,15.60
2018-08-25T09:39:04.818Z,15.70
2018-08-25T09:41:33.021Z,15.70
2018-08-25T09:44:01.097Z,15.70
2018-08-25T09:46:29.277Z,15.70
2018-08-25T09:48:57.430Z,15.70
2018-08-25T09:51:25.553Z,15.70
2018-08-25T09:53:53.693Z,15.60
2018-08-25T09:56:21.817Z,15.50
2018-08-25T09:58:50.032Z,15.60
2018-08-25T10:01:23.670Z,15.50
2018-08-25T10:03:51.810Z,15.50
2018-08-25T10:06:19.933Z,15.50
2018-08-25T10:08:48.065Z,15.50
2018-08-25T10:11:16.202Z,15.50
2018-08-25T10:13:44.330Z,15.40
2018-08-25T10:16:12.450Z,15.40
2018-08-25T10:18:40.583Z,15.40
2018-08-25T10:21:08.702Z,15.40
2018-08-25T10:23:36.952Z,15.40
2018-08-25T10:26:05.070Z,15.40
2018-08-25T10:28:33.213Z,15.40
2018-08-25T10:31:01.898Z,15.30
2018-08-25T10:33:30.057Z,15.20
2018-08-25T10:35:58.189Z,15.30
2018-08-25T10:38:26.309Z,15.30
2018-08-25T10:40:54.450Z,15.20
2018-08-25T10:43:22.581Z,15.20
2018-08-25T10:45:50.706Z,15.10
2018-08-25T10:48:18.838Z,15.10
2018-08-25T10:50:46.994Z,15.10
2018-08-25T10:53:15.130Z,15.20
2018-08-25T10:55:43.265Z,15.20
2018-08-25T10:58:11.397Z,15.10
2018-08-25T11:00:39.716Z,15.10
2018-08-25T11:03:07.662Z,15.10
2018-08-25T11:05:35.831Z,15.10
2018-08-25T11:08:03.953Z,15.10
2018-08-25T11:10:32.085Z,15.10
2018-08-25T11:13:00.215Z,15.10
2018-08-25T11:15:28.390Z,15.10
2018-08-25T11:17:56.542Z,15.20
2018-08-25T11:20:24.716Z,15.20
2018-08-25T11:22:52.853Z,15.30
2018-08-25T11:25:20.990Z,15.30
2018-08-25T11:27:49.120Z,15.30
2018-08-25T11:30:17.258Z,15.40
2018-08-25T11:32:45.369Z,15.50
2018-08-25T11:35:13.493Z,15.70
2018-08-25T11:37:41.745Z,15.80
2018-08-25T11:40:09.847Z,15.90
2018-08-25T11:42:37.957Z,15.80
2018-08-25T11:45:06.434Z,15.70
2018-08-25T11:47:34.550Z,15.70
2018-08-25T11:50:02.678Z,15.60
2018-08-25T11:52:30.794Z,15.30
2018-08-25T11:54:58.914Z,15.20
2018-08-25T11:57:27.037Z,15.20
2018-08-25T11:59:55.155Z,15.30
2018-08-25T12:02:23.273Z,15.40
2018-08-25T12:04:51.387Z,15.40
2018-08-25T12:07:19.506Z,15.50
2018-08-25T12:09:47.741Z,15.60
2018-08-25T12:12:15.860Z,15.60
2018-08-25T12:14:43.966Z,15.60
2018-08-25T12:17:12.082Z,15.60
2018-08-25T12:19:40.189Z,15.50
2018-08-25T12:22:08.413Z,15.60
2018-08-25T12:24:36.514Z,15.60
2018-08-25T12:27:05.117Z,15.70
2018-08-25T12:29:33.244Z,15.60
2018-08-25T12:32:01.417Z,15.70
2018-08-25T12:34:29.554Z,15.70
2018-08-25T12:36:57.713Z,15.80
2018-08-25T12:39:25.915Z,15.80
2018-08-25T12:41:53.970Z,15.70
2018-08-25T12:44:22.105Z,15.80
2018-08-25T12:46:50.249Z,15.90
2018-08-25T12:49:18.377Z,16.00
2018-08-25T12:51:46.529Z,16.20
2018-08-25T12:54:14.649Z,16.40
2018-08-25T12:56:42.794Z,16.70
2018-08-25T12:59:10.979Z,17.00
2018-08-25T13:01:39.322Z,17.10
2018-08-25T13:04:07.458Z,17.20
2018-08-25T13:06:35.625Z,17.20
2018-08-25T13:09:04.646Z,17.30
2018-08-25T13:11:32.778Z,17.50
2018-08-25T13:14:00.906Z,17.50
2018-08-25T13:16:29.029Z,17.30
2018-08-25T13:18:57.296Z,17.10
2018-08-25T13:21:25.324Z,16.90
2018-08-25T13:23:53.466Z,16.90
2018-08-25T13:26:21.599Z,16.90
2018-08-25T13:28:49.730Z,16.80
2018-08-25T13:31:17.860Z,16.80
2018-08-25T13:33:47.010Z,16.80
2018-08-25T13:36:15.125Z,16.80
2018-08-25T13:38:43.257Z,16.80
2018-08-25T13:41:11.382Z,16.80
2018-08-25T13:43:40.642Z,16.80
2018-08-25T13:46:08.764Z,16.80
2018-08-25T13:48:36.889Z,16.80
2018-08-25T13:51:05.326Z,16.80
2018-08-25T13:53:33.370Z,16.80
2018-08-25T13:56:01.502Z,16.70
2018-08-25T13:58:29.637Z,16.70
2018-08-25T14:00:57.824Z,16.60
2018-08-25T14:03:26.226Z,16.60
2018-08-25T14:05:54.333Z,16.60
2018-08-25T14:08:22.638Z,16.60
2018-08-25T14:10:50.593Z,16.70
2018-08-25T14:13:18.717Z,16.70
2018-08-25T14:15:46.854Z,16.80
2018-08-25T14:18:14.982Z,16.60
2018-08-25T14:20:43.110Z,16.50
2018-08-25T14:23:11.249Z,16.50
2018-08-25T14:25:39.421Z,16.60
2018-08-25T14:28:07.556Z,16.60
2018-08-25T14:30:35.735Z,16.60
2018-08-25T14:33:03.845Z,16.60
2018-08-25T14:35:31.976Z,16.50
2018-08-25T14:38:00.080Z,16.60
2018-08-25T14:40:28.200Z,16.70
2018-08-25T14:42:56.329Z,16.80
2018-08-25T14:45:24.450Z,17.00
2018-08-25T14:47:52.606Z,17.00
2018-08-25T14:50:20.737Z,17.00
2018-08-25T14:52:48.854Z,17.00
2018-08-25T14:55:16.962Z,17.10
2018-08-25T14:57:45.073Z,17.20
2018-08-25T15:00:13.200Z,17.20
2018-08-25T15:02:41.304Z,17.30
2018-08-25T15:05:09.405Z,17.20
2018-08-25T15:07:37.526Z,17.10
2018-08-25T15:10:06.142Z,17.10
2018-08-25T15:12:34.264Z,17.10
2018-08-25T15:15:02.431Z,17.10
2018-08-25T15:17:30.521Z,17.00
2018-08-25T15:19:58.650Z,17.00
2018-08-25T15:22:26.765Z,16.80
2018-08-25T15:24:54.884Z,16.70
2018-08-25T15:27:23.123Z,16.60
2018-08-25T15:29:51.201Z,16.60
2018-08-25T15:32:19.348Z,16.50
2018-08-25T15:34:47.481Z,16.20
2018-08-25T15:37:15.621Z,16.00
2018-08-25T15:39:43.750Z,15.80
2018-08-25T15:42:11.877Z,15.70
2018-08-25T15:44:40.026Z,15.70
2018-08-25T15:47:08.148Z,15.70
2018-08-25T15:49:36.278Z,15.50
2018-08-25T15:52:04.537Z,15.50
2018-08-25T15:54:32.658Z,15.50
2018-08-25T15:57:00.786Z,15.60
2018-08-25T15:59:28.903Z,15.50
2018-08-25T16:01:57.045Z,15.60
2018-08-25T16:04:25.183Z,15.60
2018-08-25T16:06:53.330Z,15.60
2018-08-25T16:09:21.457Z,15.70
2018-08-25T16:11:49.644Z,15.70
2018-08-25T16:14:17.730Z,15.70
2018-08-25T16:16:45.864Z,15.60
2018-08-25T16:19:14.043Z,15.50
2018-08-25T16:21:42.109Z,15.30
2018-08-25T16:24:10.249Z,15.20
2018-08-25T16:26:38.377Z,15.20
2018-08-25T16:29:06.558Z,15.20
2018-08-25T16:31:34.693Z,15.20
2018-08-25T16:34:02.826Z,15.30
2018-08-25T16:36:30.962Z,15.30
2018-08-25T16:38:59.082Z,15.30
2018-08-25T16:41:27.213Z,15.30
2018-08-25T16:43:55.348Z,15.20
2018-08-25T16:46:23.491Z,15.20
2018-08-25T16:48:51.610Z,15.10
2018-08-25T16:51:19.742Z,15.10
2018-08-25T16:53:47.861Z,15.10
2018-08-25T16:56:15.998Z,15.10
2018-08-25T16:58:44.117Z,15.10
2018-08-25T17:01:12.254Z,15.10
2018-08-25T17:03:40.442Z,15.10
2018-08-25T17:06:08.597Z,15.00
2018-08-25T17:08:36.747Z,15.00
2018-08-25T17:11:04.897Z,15.10
2018-08-25T17:13:33.066Z,15.10
2018-08-25T17:16:02.013Z,15.10
2018-08-25T17:18:30.141Z,15.10
2018-08-25T17:20:58.265Z,15.10
2018-08-25T17:23:26.416Z,15.10
2018-08-25T17:25:54.521Z,15.10
2018-08-25T17:28:22.665Z,15.10
2018-08-25T17:30:50.792Z,15.00
2018-08-25T17:33:18.914Z,15.00
2018-08-25T17:35:47.021Z,14.90
2018-08-25T17:38:15.150Z,14.90
2018-08-25T17:40:43.262Z,14.90
2018-08-25T17:43:11.383Z,14.80
2018-08-25T17:45:39.549Z,14.80
2018-08-25T17:48:07.657Z,14.80
2018-08-25T17:50:35.765Z,14.80
2018-08-25T17:53:03.890Z,14.80
2018-08-25T17:55:31.999Z,14.80
2018-08-25T17:58:00.130Z,14.70
2018-08-25T18:00:28.238Z,14.60
2018-08-25T18:02:56.364Z,14.50
2018-08-25T18:05:24.502Z,14.50
2018-08-25T18:07:52.630Z,14.40
2018-08-25T18:10:20.733Z,14.30
2018-08-25T18:12:48.863Z,14.30
2018-08-25T18:15:16.973Z,14.20
2018-08-25T18:17:45.098Z,14.10
2018-08-25T18:20:13.218Z,14.00
2018-08-25T18:22:41.342Z,14.00
2018-08-25T18:25:09.466Z,13.90
2018-08-25T18:27:37.569Z,13.80
2018-08-25T18:30:05.852Z,13.70
2018-08-25T18:32:33.961Z,13.60
2018-08-25T18:35:02.110Z,13.60
2018-08-25T18:37:30.242Z,13.50
2018-08-25T18:39:58.391Z,13.40
2018-08-25T18:42:26.513Z,13.40
2018-08-25T18:44:54.653Z,13.20
2018-08-25T18:47:22.794Z,13.20
2018-08-25T18:49:50.926Z,13.10
2018-08-25T18:52:19.073Z,13.00
2018-08-25T18:54:47.308Z,12.90
2018-08-25T18:57:15.360Z,12.70
2018-08-25T18:59:43.494Z,12.50
2018-08-25T19:02:11.762Z,12.40
2018-08-25T19:04:39.862Z,12.40
2018-08-25T19:07:08.005Z,12.30
2018-08-25T19:09:36.157Z,12.40
2018-08-25T19:12:04.290Z,12.40
2018-08-25T19:14:32.427Z,12.50
2018-08-25T19:17:00.643Z,12.50
2018-08-25T19:19:28.798Z,12.60
2018-08-25T19:21:56.960Z,12.70
2018-08-25T19:24:25.167Z,12.70
2018-08-25T19:26:53.330Z,12.70
2018-08-25T19:29:21.478Z,12.70
2018-08-25T19:31:49.647Z,12.70
2018-08-25T19:34:17.788Z,12.70
2018-08-25T19:36:45.922Z,12.60
2018-08-25T19:39:14.049Z,12.60
2018-08-25T19:41:42.186Z,12.60
2018-08-25T19:44:10.341Z,12.50
2018-08-25T19:46:38.477Z,12.40
2018-08-25T19:49:06.606Z,12.30
2018-08-25T19:51:34.771Z,12.30
2018-08-25T19:54:02.909Z,12.20
2018-08-25T19:56:31.055Z,12.00
2018-08-25T19:58:59.224Z,11.90
2018-08-25T20:01:27.365Z,11.80
2018-08-25T20:03:55.503Z,11.80
2018-08-25T20:06:23.645Z,11.80
2018-08-25T20:08:51.841Z,11.80
2018-08-25T20:11:19.981Z,11.80
2018-08-25T20:13:48.170Z,11.70
2018-08-25T20:16:16.801Z,11.60
2018-08-25T20:18:44.934Z,11.60
2018-08-25T20:21:13.073Z,11.50
2018-08-25T20:23:41.431Z,11.50
2018-08-25T20:26:09.566Z,11.50
2018-08-25T20:28:37.685Z,11.50
2018-08-25T20:31:05.819Z,11.40
2018-08-25T20:33:33.955Z,11.40
2018-08-25T20:36:02.091Z,11.30
2018-08-25T20:38:30.217Z,11.30
2018-08-25T20:40:58.358Z,11.20
2018-08-25T20:43:26.870Z,11.20
2018-08-25T20:45:55.016Z,11.20
2018-08-25T20:48:23.142Z,11.30
2018-08-25T20:50:51.299Z,11.30
2018-08-25T20:53:19.433Z,11.40
2018-08-25T20:55:47.550Z,11.40
2018-08-25T20:58:15.707Z,11.40
2018-08-25T21:00:43.850Z,11.40
2018-08-25T21:03:11.973Z,11.50
2018-08-25T21:05:40.106Z,11.40
2018-08-25T21:08:08.234Z,11.30
2018-08-25T21:10:36.353Z,11.30
2018-08-25T21:13:04.481Z,11.20
2018-08-25T21:15:32.624Z,11.20
2018-08-25T21:18:00.758Z,11.20
2018-08-25T21:20:28.886Z,11.20
2018-08-25T21:22:57.130Z,11.20
2018-08-25T21:25:25.161Z,11.20
2018-08-25T21:27:53.305Z,11.20
2018-08-25T21:30:21.430Z,11.20
2018-08-25T21:32:49.561Z,11.30
2018-08-25T21:35:17.694Z,11.30
2018-08-25T21:37:45.837Z,11.30
2018-08-25T21:40:13.982Z,11.30
2018-08-25T21:42:42.127Z,11.30
2018-08-25T21:45:10.289Z,11.30
2018-08-25T21:47:38.510Z,11.30
2018-08-25T21:50:06.810Z,11.30
2018-08-25T21:52:34.947Z,11.30
2018-08-25T21:55:03.081Z,11.30
2018-08-25T21:57:31.222Z,11.30
2018-08-25T21:59:59.358Z,11.30
2018-08-25T22:02:27.489Z,11.20
2018-08-25T22:04:55.617Z,11.20
2018-08-25T22:07:23.749Z,11.20
2018-08-25T22:09:51.886Z,11.00
2018-08-25T22:12:20.025Z,11.00
2018-08-25T22:14:48.161Z,10.90
2018-08-25T22:17:16.285Z,10.90
2018-08-25T22:19:44.426Z,10.90
2018-08-25T22:22:12.553Z,10.90
2018-08-25T22:24:40.689Z,11.00
2018-08-25T22:27:08.823Z,11.00
2018-08-25T22:29:36.947Z,11.10
2018-08-25T22:32:05.092Z,11.10
2018-08-25T22:34:33.213Z,11.10
2018-08-25T22:37:01.341Z,11.10
2018-08-25T22:39:29.473Z,11.10
2018-08-25T22:41:57.623Z,11.10
2018-08-25T22:44:25.749Z,11.10
2018-08-25T22:46:53.874Z,11.10
2018-08-25T22:49:22.010Z,11.10
2018-08-25T22:51:50.136Z,11.10
2018-08-25T22:54:18.262Z,11.10
2018-08-25T22:56:46.375Z,11.00
2018-08-25T22:59:14.506Z,11.00
2018-08-25T23:01:42.633Z,11.00
2018-08-25T23:04:10.775Z,10.90
2018-08-25T23:06:38.896Z,10.90
2018-08-25T23:09:08.174Z,10.90
2018-08-25T23:11:36.306Z,10.80
2018-08-25T23:14:04.490Z,10.80
2018-08-25T23:16:32.617Z,10.80
2018-08-25T23:19:00.779Z,10.80
2018-08-25T23:21:28.909Z,10.80
2018-08-25T23:23:57.040Z,10.80
2018-08-25T23:26:25.173Z,10.70
2018-08-25T23:28:53.306Z,10.50
2018-08-25T23:31:21.428Z,10.50
2018-08-25T23:33:49.578Z,10.40
2018-08-25T23:36:17.733Z,10.40
2018-08-25T23:38:45.877Z,10.30
2018-08-25T23:41:14.018Z,10.10
2018-08-25T23:43:42.159Z,10.10
2018-08-25T23:46:10.285Z,10.10
2018-08-25T23:48:38.420Z,10.00
2018-08-25T23:51:06.554Z,9.90
2018-08-25T23:53:34.677Z,9.80
2018-08-25T23:56:03.270Z,9.70
2018-08-25T23:58:31.388Z,9.60
